Time;durP1;ratioP1;P1;durP2;ratioP2;P2;SDS_P1;SDS_P2;PMS_P1;PMS_P2;Temp;Humidity;BMP_temperature;BMP_pressure;BME280_temperature;BME280_humidity;BME280_pressure;Samples;Min_cycle;Max_cycle;Signal;HPM_P1;HPM_P2
2022/01/27 00:05:12;;;;;;;27.58;16.02;;;6.20;99.90;;;;;;5091593;28;20123;-61
2022/01/27 00:07:38;;;;;;;29.23;16.50;;;6.30;99.90;;;;;;5091459;28;20115;-63
2022/01/27 00:10:20;;;;;;;29.48;15.18;;;6.30;99.90;;;;;;5091440;28;20120;-62
2022/01/27 00:12:46;;;;;;;29.88;15.70;;;6.40;99.90;;;;;;5073110;28;20047;-62
2022/01/27 00:15:13;;;;;;;30.85;15.82;;;6.30;99.90;;;;;;5091357;28;20032;-61
2022/01/27 00:17:47;;;;;;;29.98;15.38;;;6.30;99.90;;;;;;5091731;28;20424;-62
2022/01/27 00:20:14;;;;;;;30.27;15.13;;;6.30;99.90;;;;;;5091342;28;20375;-62
2022/01/27 00:22:40;;;;;;;28.15;15.65;;;6.30;99.90;;;;;;5091531;28;20051;-62
2022/01/27 00:25:07;;;;;;;33.17;14.45;;;6.30;99.90;;;;;;5091347;28;20040;-62
2022/01/27 00:27:33;;;;;;;35.85;16.52;;;6.30;99.90;;;;;;5091260;28;20432;-62
2022/01/27 00:30:05;;;;;;;33.67;17.17;;;6.30;99.90;;;;;;5072977;28;20139;-62
2022/01/27 00:32:34;;;;;;;30.60;15.43;;;6.30;99.90;;;;;;5091357;28;20040;-61
2022/01/27 00:35:00;;;;;;;37.88;15.50;;;6.30;99.90;;;;;;5073409;28;20135;-62
2022/01/27 00:37:26;;;;;;;31.77;15.00;;;6.20;99.90;;;;;;5091280;28;20211;-62
2022/01/27 00:39:53;;;;;;;33.97;15.55;;;6.20;99.90;;;;;;5091577;28;20197;-62
2022/01/27 00:42:19;;;;;;;34.25;17.20;;;6.20;99.90;;;;;;5091133;28;20100;-62
2022/01/27 00:44:44;;;;;;;31.15;16.85;;;6.20;99.90;;;;;;5091204;28;20036;-63
2022/01/27 00:47:10;;;;;;;30.90;15.93;;;6.20;99.90;;;;;;5091189;28;20040;-62
2022/01/27 00:49:37;;;;;;;34.95;17.45;;;6.30;99.90;;;;;;5094815;28;20040;-62
2022/01/27 00:52:03;;;;;;;30.10;15.10;;;6.20;99.90;;;;;;5094912;28;20048;-61
2022/01/27 00:54:30;;;;;;;32.15;16.95;;;6.20;99.90;;;;;;5094875;28;20150;-62
2022/01/27 00:57:05;;;;;;;32.33;15.98;;;6.30;99.90;;;;;;5094591;28;20420;-62
2022/01/27 01:02:25;;;;;;;30.95;15.80;;;6.30;99.90;;;;;;5094755;28;20040;-62
2022/01/27 01:05:03;;;;;;;31.55;16.15;;;6.20;99.90;;;;;;5094664;28;20040;-62
2022/01/27 01:07:37;;;;;;;28.05;15.73;;;6.30;99.90;;;;;;5094544;28;20051;-62
2022/01/27 01:15:32;;;;;;;31.95;15.55;;;6.20;99.90;;;;;;5094395;28;20055;-62
2022/01/27 01:20:37;;;;;;;30.50;15.70;;;6.10;99.90;;;;;;5094275;28;20051;-62
2022/01/27 01:29:26;;;;;;;35.28;17.55;;;6.00;99.90;;;;;;5094249;28;20453;-62
2022/01/27 01:33:56;;;;;;;32.63;17.45;;;5.90;99.90;;;;;;5094660;28;20052;-62
2022/01/27 01:36:35;;;;;;;34.25;17.50;;;5.90;99.90;;;;;;5093793;28;20410;-62
2022/01/27 01:39:01;;;;;;;35.17;17.55;;;5.90;99.90;;;;;;5093996;28;20043;-61
2022/01/27 01:41:26;;;;;;;28.85;17.05;;;5.90;99.90;;;;;;5094096;28;20036;-61
2022/01/27 01:43:52;;;;;;;33.03;16.05;;;5.90;99.90;;;;;;5075593;28;20055;-63
2022/01/27 01:46:17;;;;;;;30.58;16.58;;;5.90;99.90;;;;;;5093720;28;20123;-61
2022/01/27 01:48:43;;;;;;;39.95;17.50;;;5.90;99.90;;;;;;5093789;28;20122;-62
2022/01/27 01:51:10;;;;;;;34.25;18.27;;;5.80;99.90;;;;;;5093614;28;20088;-61
2022/01/27 01:53:36;;;;;;;31.30;18.13;;;5.90;99.90;;;;;;5093555;28;20041;-60
2022/01/27 01:56:04;;;;;;;30.30;18.15;;;5.90;99.90;;;;;;5093326;28;20074;-60
2022/01/27 01:58:30;;;;;;;33.63;18.93;;;5.90;99.90;;;;;;5093551;28;20040;-61
2022/01/27 02:00:56;;;;;;;37.90;18.50;;;5.80;99.90;;;;;;5092846;28;20505;-63
2022/01/27 02:03:22;;;;;;;32.95;18.20;;;5.80;99.90;;;;;;5093454;28;20390;-61
2022/01/27 02:05:53;;;;;;;34.45;18.90;;;5.90;99.90;;;;;;5093378;28;20501;-63
2022/01/27 02:19:27;;;;;;;36.65;21.13;;;5.80;99.90;;;;;;5093271;28;20044;-63
2022/01/27 02:22:04;;;;;;;32.28;19.08;;;5.80;99.90;;;;;;5093007;28;20470;-62
2022/01/27 02:24:32;;;;;;;37.38;19.48;;;5.80;99.90;;;;;;5093001;28;20371;-61
2022/01/27 02:26:59;;;;;;;33.13;20.02;;;5.80;99.90;;;;;;5093055;28;20105;-61
2022/01/27 02:29:25;;;;;;;37.15;21.15;;;5.90;99.90;;;;;;5093381;28;20043;-64
2022/01/27 02:31:54;;;;;;;38.42;20.75;;;5.90;99.90;;;;;;5092892;28;20040;-62
2022/01/27 02:34:20;;;;;;;40.47;20.75;;;5.90;99.90;;;;;;5093234;28;20065;-62
2022/01/27 02:36:46;;;;;;;40.47;20.70;;;5.90;99.90;;;;;;5092711;28;20506;-63
2022/01/27 02:39:13;;;;;;;33.50;20.15;;;5.90;99.90;;;;;;5092650;28;20074;-61
2022/01/27 02:42:09;;;;;;;36.28;21.55;;;6.00;99.90;;;;;;5092638;28;20059;-61
2022/01/27 02:44:47;;;;;;;39.20;21.65;;;6.00;99.90;;;;;;5092730;28;20047;-62
2022/01/27 02:47:16;;;;;;;39.72;20.95;;;6.00;99.90;;;;;;5092748;28;20138;-61
2022/01/27 02:49:43;;;;;;;38.13;21.98;;;6.00;99.90;;;;;;5092563;28;20101;-61
2022/01/27 02:52:09;;;;;;;46.38;21.75;;;6.00;99.90;;;;;;5092413;28;20032;-61
2022/01/27 02:54:35;;;;;;;40.40;21.13;;;6.00;99.90;;;;;;5092638;28;20036;-62
2022/01/27 02:57:01;;;;;;;41.45;21.23;;;6.00;99.90;;;;;;5092364;28;20047;-62
2022/01/27 02:59:27;;;;;;;34.60;21.30;;;6.00;99.90;;;;;;5092364;28;20032;-62
2022/01/27 03:01:53;;;;;;;35.72;22.05;;;6.00;99.90;;;;;;5092376;28;20486;-60
2022/01/27 03:04:20;;;;;;;35.60;21.15;;;6.00;99.90;;;;;;5092296;28;20444;-62
2022/01/27 03:06:46;;;;;;;39.05;21.27;;;6.10;99.90;;;;;;5092207;28;20049;-61
2022/01/27 03:09:13;;;;;;;37.83;21.63;;;6.10;99.90;;;;;;5092216;28;20123;-61
2022/01/27 03:11:46;;;;;;;42.03;21.52;;;6.10;99.90;;;;;;5092274;28;20036;-59
2022/01/27 03:14:14;;;;;;;34.35;20.05;;;6.10;99.90;;;;;;5092231;28;20062;-61
2022/01/27 03:16:41;;;;;;;44.00;21.95;;;6.10;99.90;;;;;;5092220;28;20458;-61
2022/01/27 03:19:06;;;;;;;43.85;21.83;;;6.10;99.90;;;;;;5092106;28;20046;-62
2022/01/27 03:21:32;;;;;;;44.33;22.85;;;6.10;99.90;;;;;;5092042;28;20032;-61
2022/01/27 03:23:58;;;;;;;43.55;22.08;;;6.00;99.90;;;;;;5092096;28;20088;-62
2022/01/27 03:26:24;;;;;;;36.85;22.05;;;6.10;99.90;;;;;;5092068;28;20094;-62
2022/01/27 03:28:50;;;;;;;36.90;20.88;;;6.10;99.90;;;;;;5092062;28;20044;-63
2022/01/27 03:31:16;;;;;;;43.50;22.90;;;6.10;99.90;;;;;;5091915;28;20366;-61
2022/01/27 03:33:43;;;;;;;37.63;21.20;;;6.10;99.90;;;;;;5091870;28;20390;-62
2022/01/27 03:36:10;;;;;;;35.33;21.23;;;6.10;99.90;;;;;;5091528;28;20489;-61
2022/01/27 03:38:36;;;;;;;42.75;21.92;;;6.10;99.90;;;;;;5091897;28;20119;-61
2022/01/27 03:41:07;;;;;;;36.55;21.90;;;6.20;99.90;;;;;;5091941;28;20111;-60
2022/01/27 03:43:35;;;;;;;37.95;20.80;;;6.30;99.90;;;;;;5091686;28;20044;-60
2022/01/27 03:46:02;;;;;;;36.25;20.13;;;6.20;99.90;;;;;;5091770;28;20416;-60
2022/01/27 03:48:28;;;;;;;38.65;22.17;;;6.20;99.90;;;;;;5091609;28;20118;-61
2022/01/27 03:50:54;;;;;;;35.47;20.55;;;6.20;99.90;;;;;;5091891;28;20040;-62
2022/01/27 03:53:19;;;;;;;41.42;22.60;;;6.20;99.90;;;;;;5091783;28;20390;-60
2022/01/27 03:55:45;;;;;;;41.30;20.25;;;6.20;99.90;;;;;;5091551;28;20389;-62
2022/01/27 03:58:11;;;;;;;39.67;20.05;;;6.20;99.90;;;;;;5091609;28;20036;-61
2022/01/27 04:00:37;;;;;;;41.50;22.00;;;6.10;99.90;;;;;;5091598;28;20032;-60
2022/01/27 04:03:09;;;;;;;37.25;21.13;;;6.20;99.90;;;;;;5091836;28;20044;-61
2022/01/27 04:05:44;;;;;;;38.75;20.70;;;6.20;99.90;;;;;;5091537;28;20032;-61
2022/01/27 04:08:12;;;;;;;38.30;22.02;;;6.10;99.90;;;;;;5091688;28;20075;-61
2022/01/27 04:10:39;;;;;;;38.03;19.95;;;6.20;99.90;;;;;;5091520;28;20039;-62
2022/01/27 04:13:06;;;;;;;38.80;20.98;;;6.20;99.90;;;;;;5091310;28;20466;-61
2022/01/27 04:15:33;;;;;;;35.33;20.52;;;6.20;99.90;;;;;;5091348;28;20119;-62
2022/01/27 04:17:59;;;;;;;42.15;20.23;;;6.20;99.90;;;;;;5091736;28;20033;-61
2022/01/27 04:20:24;;;;;;;36.53;18.25;;;6.20;99.90;;;;;;5091568;28;20206;-60
2022/01/27 04:22:50;;;;;;;37.20;21.17;;;6.20;99.90;;;;;;5093144;28;20036;-61
2022/01/27 04:25:16;;;;;;;38.35;19.23;;;6.20;99.90;;;;;;5095586;28;20439;-61
2022/01/27 04:27:46;;;;;;;36.17;20.38;;;6.20;99.90;;;;;;5095151;28;20043;-63
2022/01/27 04:30:17;;;;;;;45.03;19.73;;;6.20;99.90;;;;;;5095436;28;20524;-61
2022/01/27 04:32:51;;;;;;;41.28;18.95;;;6.20;99.90;;;;;;5095391;28;20071;-62
2022/01/27 04:35:20;;;;;;;41.20;19.02;;;6.30;99.90;;;;;;5095492;28;20111;-62
2022/01/27 04:40:33;;;;;;;45.80;19.83;;;6.20;99.90;;;;;;5095966;28;20087;-62
2022/01/27 04:45:30;;;;;;;35.88;17.77;;;6.20;99.90;;;;;;5095423;28;20557;-61
2022/01/27 04:48:06;;;;;;;47.65;19.52;;;6.20;99.90;;;;;;5096230;28;20478;-61
2022/01/27 04:50:31;;;;;;;47.88;19.08;;;6.20;99.90;;;;;;5060589;28;20126;-61
2022/01/27 04:52:59;;;;;;;35.28;18.45;;;6.20;99.90;;;;;;5094890;28;20114;-63
2022/01/27 04:55:25;;;;;;;41.50;18.65;;;6.30;99.90;;;;;;5094934;28;20071;-62
2022/01/27 04:58:06;;;;;;;36.88;17.48;;;6.20;99.90;;;;;;5095077;28;20032;-63
2022/01/27 05:00:32;;;;;;;43.92;17.70;;;6.20;99.90;;;;;;5076658;28;20546;-61
2022/01/27 05:03:00;;;;;;;41.92;18.90;;;6.30;99.90;;;;;;5094643;28;20060;-62
2022/01/27 05:05:25;;;;;;;37.28;18.27;;;6.30;99.90;;;;;;5076581;28;20047;-62
2022/01/27 05:08:00;;;;;;;34.95;18.77;;;6.30;99.90;;;;;;5094727;28;20040;-63
2022/01/27 05:10:31;;;;;;;41.22;18.50;;;6.20;99.90;;;;;;5094864;28;20051;-61
2022/01/27 05:13:06;;;;;;;43.55;20.85;;;6.30;99.90;;;;;;5094386;28;20109;-62
2022/01/27 05:15:31;;;;;;;46.25;19.63;;;6.10;99.90;;;;;;5094890;28;20044;-62
2022/01/27 05:17:57;;;;;;;42.63;18.50;;;6.10;99.90;;;;;;5094560;28;20039;-61
2022/01/27 05:20:23;;;;;;;45.63;19.67;;;6.20;99.90;;;;;;5094467;28;20394;-63
2022/01/27 05:22:48;;;;;;;41.30;20.48;;;6.10;99.90;;;;;;5076140;28;20032;-61
2022/01/27 05:25:14;;;;;;;42.78;19.42;;;6.10;99.90;;;;;;5094311;28;20040;-63
2022/01/27 05:27:40;;;;;;;41.67;20.40;;;6.10;99.90;;;;;;5094174;28;20044;-62
2022/01/27 05:30:06;;;;;;;46.90;21.33;;;6.10;99.90;;;;;;5076076;28;20036;-62
2022/01/27 05:32:34;;;;;;;43.75;20.38;;;6.10;99.90;;;;;;5093997;28;20065;-62
2022/01/27 05:35:00;;;;;;;39.93;19.73;;;6.10;99.90;;;;;;5092812;28;20417;-63
2022/01/27 05:37:26;;;;;;;54.25;20.83;;;6.10;99.90;;;;;;5093863;28;20044;-61
2022/01/27 05:39:51;;;;;;;54.33;21.33;;;6.10;99.90;;;;;;5093861;28;20044;-62
2022/01/27 05:42:17;;;;;;;51.88;20.23;;;6.10;99.90;;;;;;5094247;28;20043;-62
2022/01/27 05:44:43;;;;;;;38.90;19.83;;;6.10;99.90;;;;;;5094029;28;20515;-63
2022/01/27 05:47:08;;;;;;;52.85;20.17;;;6.10;99.90;;;;;;5093733;28;20036;-62
2022/01/27 05:49:34;;;;;;;53.60;20.77;;;6.10;99.90;;;;;;5093909;28;20040;-62
2022/01/27 05:52:00;;;;;;;53.55;20.58;;;6.10;99.90;;;;;;5093906;28;20036;-62
2022/01/27 05:54:25;;;;;;;48.50;19.85;;;6.20;99.90;;;;;;5093588;28;20490;-61
2022/01/27 05:56:51;;;;;;;41.60;17.95;;;6.10;99.90;;;;;;5093720;28;20041;-62
2022/01/27 05:59:16;;;;;;;44.88;20.58;;;6.10;99.90;;;;;;5093385;28;20097;-63
2022/01/27 06:01:42;;;;;;;43.53;19.33;;;6.20;99.90;;;;;;5075285;28;20127;-62
2022/01/27 06:04:08;;;;;;;40.83;18.23;;;6.10;99.90;;;;;;5093578;28;20036;-62
2022/01/27 06:06:33;;;;;;;43.50;18.98;;;6.20;99.90;;;;;;5093597;28;20123;-63
2022/01/27 06:08:59;;;;;;;43.47;17.50;;;6.20;99.90;;;;;;5093537;28;20466;-63
2022/01/27 06:11:24;;;;;;;43.40;17.73;;;6.20;99.90;;;;;;5093442;28;20046;-62
2022/01/27 06:13:50;;;;;;;45.65;18.77;;;6.20;99.90;;;;;;5093224;28;20070;-63
2022/01/27 06:16:15;;;;;;;41.33;19.38;;;6.20;99.90;;;;;;5093073;28;20395;-62
2022/01/27 06:18:42;;;;;;;45.45;18.67;;;6.20;99.90;;;;;;5093714;28;20140;-62
2022/01/27 06:21:09;;;;;;;42.22;17.88;;;6.30;99.90;;;;;;5093610;28;20043;-62
2022/01/27 06:23:35;;;;;;;41.47;18.48;;;6.30;99.90;;;;;;5093456;28;20427;-62
2022/01/27 06:26:02;;;;;;;36.55;15.57;;;6.30;99.90;;;;;;5093185;28;20478;-63
2022/01/27 06:28:27;;;;;;;36.78;17.00;;;6.30;99.90;;;;;;5093267;28;20398;-62
2022/01/27 06:30:53;;;;;;;36.42;17.10;;;6.40;99.90;;;;;;5092887;28;20036;-63
2022/01/27 06:33:19;;;;;;;36.78;15.85;;;6.40;99.90;;;;;;5092931;28;20047;-62
2022/01/27 06:35:45;;;;;;;36.75;15.45;;;6.40;99.90;;;;;;5092743;28;20059;-63
2022/01/27 06:38:10;;;;;;;38.63;14.55;;;6.50;99.90;;;;;;5057476;28;20513;-63
2022/01/27 06:40:36;;;;;;;34.38;14.73;;;6.50;99.90;;;;;;5092802;28;20040;-63
2022/01/27 06:43:02;;;;;;;38.97;16.88;;;6.50;99.90;;;;;;5092724;28;20046;-63
2022/01/27 06:45:27;;;;;;;36.10;16.52;;;6.50;99.90;;;;;;5074433;28;20393;-62
2022/01/27 06:47:53;;;;;;;40.75;16.25;;;6.60;99.90;;;;;;5092891;28;20036;-63
2022/01/27 06:50:19;;;;;;;36.33;15.88;;;6.50;99.90;;;;;;5092756;28;20417;-63
2022/01/27 06:52:44;;;;;;;30.65;14.82;;;6.60;99.90;;;;;;5092521;28;20046;-63
2022/01/27 06:55:12;;;;;;;41.90;15.85;;;6.60;99.90;;;;;;5092519;28;20114;-63
2022/01/27 06:57:38;;;;;;;37.17;15.27;;;6.60;99.90;;;;;;5073986;28;20096;-63
2022/01/27 07:00:07;;;;;;;35.35;14.25;;;6.60;99.90;;;;;;5092375;28;20482;-63
2022/01/27 07:02:32;;;;;;;31.55;13.60;;;6.60;99.90;;;;;;5092574;28;20140;-63
2022/01/27 07:04:58;;;;;;;33.10;14.93;;;6.60;99.90;;;;;;5092353;28;20523;-63
2022/01/27 07:07:24;;;;;;;36.38;15.43;;;6.60;99.90;;;;;;5092395;28;20044;-63
2022/01/27 07:09:50;;;;;;;33.53;14.43;;;6.60;99.90;;;;;;5092391;28;20093;-64
2022/01/27 07:12:15;;;;;;;32.78;14.93;;;6.60;99.90;;;;;;5092141;28;20047;-63
2022/01/27 07:14:41;;;;;;;34.55;14.60;;;6.70;99.90;;;;;;5092439;28;20438;-63
2022/01/27 07:17:07;;;;;;;34.78;14.50;;;6.60;99.90;;;;;;5092107;28;20531;-62
2022/01/27 07:19:32;;;;;;;32.35;14.00;;;6.60;99.90;;;;;;5073905;28;20055;-63
2022/01/27 07:21:59;;;;;;;32.83;14.18;;;6.70;99.90;;;;;;5092073;28;20036;-62
2022/01/27 07:24:24;;;;;;;29.10;13.40;;;6.70;99.90;;;;;;5092076;28;20097;-63
2022/01/27 07:26:50;;;;;;;28.10;13.52;;;6.70;99.90;;;;;;5091949;28;20417;-63
2022/01/27 07:29:16;;;;;;;23.70;12.73;;;6.80;99.90;;;;;;5091927;28;20043;-62
2022/01/27 07:31:42;;;;;;;27.70;12.50;;;6.80;99.90;;;;;;5092120;28;20043;-63
2022/01/27 07:34:07;;;;;;;31.35;13.57;;;6.80;99.90;;;;;;5091907;28;20077;-62
2022/01/27 07:36:33;;;;;;;29.27;13.23;;;6.80;99.90;;;;;;5073403;28;20060;-63
2022/01/27 07:39:00;;;;;;;30.10;13.13;;;6.80;99.90;;;;;;5091721;28;20040;-62
2022/01/27 07:41:26;;;;;;;28.30;13.73;;;6.90;99.90;;;;;;5091676;28;20093;-62
2022/01/27 07:43:52;;;;;;;31.20;13.07;;;6.90;99.90;;;;;;5091770;28;20041;-62
2022/01/27 07:46:17;;;;;;;31.02;13.25;;;6.90;99.90;;;;;;5091787;28;20036;-62
2022/01/27 07:48:43;;;;;;;34.05;13.23;;;6.90;99.90;;;;;;5091893;28;20047;-64
2022/01/27 07:51:10;;;;;;;35.78;13.00;;;7.00;99.90;;;;;;5091726;28;20044;-63
2022/01/27 07:53:37;;;;;;;30.13;12.68;;;7.00;99.90;;;;;;5091699;28;20035;-62
2022/01/27 07:56:04;;;;;;;34.13;13.68;;;7.00;99.90;;;;;;5091518;28;20093;-63
2022/01/27 07:58:38;;;;;;;29.88;12.00;;;7.10;99.90;;;;;;5094224;28;20069;-62
2022/01/27 08:01:04;;;;;;;30.13;11.75;;;7.10;99.90;;;;;;5095903;28;20363;-62
2022/01/27 08:03:30;;;;;;;36.20;13.18;;;7.20;99.90;;;;;;5096057;28;20077;-63
2022/01/27 08:05:55;;;;;;;38.08;13.05;;;7.20;99.90;;;;;;5095706;28;20047;-63
2022/01/27 08:08:21;;;;;;;45.08;14.20;;;7.30;99.90;;;;;;5095745;28;20135;-63
2022/01/27 08:10:48;;;;;;;28.65;11.10;;;7.30;99.90;;;;;;5095653;28;20044;-63
2022/01/27 08:13:14;;;;;;;36.28;12.10;;;7.30;99.90;;;;;;5095892;28;20178;-62
2022/01/27 08:15:40;;;;;;;32.97;10.82;;;7.40;99.90;;;;;;5095600;28;20044;-63
2022/01/27 08:18:05;;;;;;;29.88;12.80;;;7.40;99.90;;;;;;5095710;28;20038;-62
2022/01/27 08:20:31;;;;;;;33.92;10.23;;;7.40;99.90;;;;;;5095637;28;20058;-64
2022/01/27 08:22:58;;;;;;;37.08;12.02;;;7.40;99.90;;;;;;5095524;28;20032;-63
2022/01/27 08:25:24;;;;;;;31.10;10.65;;;7.50;99.90;;;;;;5095455;28;20048;-62
2022/01/27 08:27:54;;;;;;;30.73;10.57;;;7.50;99.90;;;;;;5095874;28;20105;-62
2022/01/27 08:30:23;;;;;;;31.25;10.23;;;7.50;99.90;;;;;;5095306;28;20478;-62
2022/01/27 08:32:57;;;;;;;34.58;10.63;;;7.60;99.90;;;;;;5076854;28;20055;-63
2022/01/27 08:35:23;;;;;;;26.30;8.93;;;7.60;99.90;;;;;;5095301;28;20115;-62
2022/01/27 08:37:49;;;;;;;24.45;9.75;;;7.60;99.90;;;;;;5094747;28;20458;-62
2022/01/27 08:40:19;;;;;;;24.77;9.73;;;7.70;99.90;;;;;;5095330;28;20070;-63
2022/01/27 08:42:45;;;;;;;29.55;10.20;;;7.70;99.90;;;;;;5095147;28;20036;-62
2022/01/27 08:45:17;;;;;;;23.63;8.20;;;7.70;99.90;;;;;;5094969;28;20474;-63
2022/01/27 08:47:44;;;;;;;35.67;9.20;;;7.70;99.90;;;;;;5114612;28;20420;-62
2022/01/27 08:50:12;;;;;;;20.42;7.97;;;7.60;99.90;;;;;;5114273;28;20048;-63
2022/01/27 08:52:39;;;;;;;33.85;9.02;;;7.70;99.90;;;;;;5114877;28;20043;-63
2022/01/27 08:55:06;;;;;;;29.33;8.23;;;7.70;99.90;;;;;;5093847;28;20039;-62
2022/01/27 08:57:32;;;;;;;23.13;7.65;;;7.70;99.90;;;;;;5096709;28;20115;-63
2022/01/27 08:59:58;;;;;;;25.45;8.13;;;7.70;99.90;;;;;;5115391;28;20461;-62
2022/01/27 09:02:24;;;;;;;30.70;8.60;;;7.80;99.90;;;;;;5109641;28;20055;-61
2022/01/27 09:04:50;;;;;;;28.58;7.65;;;7.70;99.90;;;;;;5103591;28;20066;-63
2022/01/27 09:07:16;;;;;;;21.83;6.85;;;7.80;99.90;;;;;;5109932;28;20071;-63
2022/01/27 09:09:46;;;;;;;26.52;7.43;;;7.70;99.90;;;;;;5115061;28;20545;-64
2022/01/27 09:12:13;;;;;;;25.63;8.35;;;7.80;99.90;;;;;;5111148;28;20048;-63
2022/01/27 09:14:41;;;;;;;29.85;7.60;;;7.80;99.90;;;;;;5100465;28;20044;-64
2022/01/27 09:17:11;;;;;;;25.02;7.82;;;7.80;99.90;;;;;;5101924;28;20043;-64
2022/01/27 09:19:40;;;;;;;20.67;6.40;;;7.80;99.90;;;;;;5094659;28;20813;-64
2022/01/27 09:22:11;;;;;;;24.40;7.03;;;7.90;99.90;;;;;;5095061;28;20040;-63
2022/01/27 09:24:48;;;;;;;21.80;6.40;;;7.90;99.90;;;;;;5076610;28;20040;-62
2022/01/27 09:27:13;;;;;;;24.83;5.95;;;7.90;99.90;;;;;;5094482;28;20048;-63
2022/01/27 09:29:40;;;;;;;22.92;5.80;;;8.00;99.90;;;;;;5094246;28;20507;-63
2022/01/27 09:32:06;;;;;;;17.83;6.15;;;8.00;99.90;;;;;;5094278;28;20038;-65
2022/01/27 09:34:32;;;;;;;21.80;7.15;;;8.10;99.90;;;;;;5094118;28;20482;-64
2022/01/27 09:37:02;;;;;;;21.13;6.13;;;8.00;99.90;;;;;;5093943;28;20063;-63
2022/01/27 09:39:29;;;;;;;19.33;5.97;;;8.10;99.90;;;;;;5075562;28;20036;-63
2022/01/27 09:41:56;;;;;;;21.40;6.25;;;8.00;99.90;;;;;;5093867;28;20038;-63
2022/01/27 09:44:28;;;;;;;17.88;5.93;;;8.10;99.90;;;;;;5093775;28;20433;-62
2022/01/27 09:46:57;;;;;;;18.25;5.63;;;8.10;99.90;;;;;;5094178;28;20138;-64
2022/01/27 09:49:31;;;;;;;20.40;5.45;;;8.10;99.90;;;;;;5094308;28;20085;-62
2022/01/27 09:51:57;;;;;;;21.38;6.40;;;8.10;99.90;;;;;;5093882;28;20039;-63
2022/01/27 09:54:23;;;;;;;21.08;5.95;;;8.20;99.90;;;;;;5093733;28;20099;-63
2022/01/27 09:56:49;;;;;;;20.75;5.00;;;8.20;99.90;;;;;;5093643;28;20046;-63
2022/01/27 09:59:16;;;;;;;24.38;5.60;;;8.20;99.90;;;;;;5093524;28;20043;-62
2022/01/27 10:02:16;;;;;;;22.40;5.63;;;8.30;99.90;;;;;;5093796;28;20032;-62
2022/01/27 10:04:49;;;;;;;26.55;5.78;;;8.30;99.90;;;;;;4991865;28;20390;-63
2022/01/27 10:07:18;;;;;;;19.48;5.30;;;8.30;99.90;;;;;;4992101;28;20083;-64
2022/01/27 10:10:00;;;;;;;25.38;5.93;;;8.30;99.90;;;;;;4991790;28;20113;-62
2022/01/27 10:12:33;;;;;;;22.08;6.78;;;8.30;99.90;;;;;;4991760;28;20046;-62
2022/01/27 10:15:01;;;;;;;17.45;5.13;;;8.30;99.90;;;;;;4991777;28;20177;-63
2022/01/27 10:17:29;;;;;;;22.92;5.40;;;8.40;99.90;;;;;;4991428;28;20085;-62
2022/01/27 10:19:55;;;;;;;17.35;4.80;;;8.40;99.90;;;;;;4991111;28;20053;-62
2022/01/27 10:22:21;;;;;;;26.83;4.70;;;8.40;99.90;;;;;;4991377;28;20469;-63
2022/01/27 10:24:59;;;;;;;18.33;5.05;;;8.50;99.90;;;;;;4991525;28;20126;-61
2022/01/27 10:32:35;;;;;;;27.40;5.22;;;8.60;99.90;;;;;;4991281;28;20068;-62
2022/01/27 10:35:02;;;;;;;19.33;4.78;;;8.60;99.90;;;;;;4991207;28;20101;-62
2022/01/27 10:37:28;;;;;;;19.33;5.00;;;8.70;99.90;;;;;;4990984;28;20054;-63
2022/01/27 10:39:54;;;;;;;21.02;5.10;;;8.70;99.90;;;;;;4996351;28;20382;-63
2022/01/27 10:42:22;;;;;;;27.90;5.68;;;8.80;99.90;;;;;;5092909;28;20121;-62
2022/01/27 10:44:55;;;;;;;23.85;5.07;;;8.70;99.90;;;;;;5092830;28;20075;-62
2022/01/27 10:47:28;;;;;;;24.15;4.40;;;8.80;99.90;;;;;;5092769;28;20436;-62
2022/01/27 10:50:00;;;;;;;21.98;5.57;;;8.80;99.90;;;;;;5092892;28;20040;-63
2022/01/27 10:52:42;;;;;;;23.08;6.00;;;8.80;99.90;;;;;;5092793;28;20089;-61
2022/01/27 10:55:20;;;;;;;21.00;6.15;;;8.80;99.90;;;;;;5092555;28;20057;-62
2022/01/27 10:57:50;;;;;;;23.48;4.85;;;8.90;99.90;;;;;;5092774;28;20039;-63
2022/01/27 11:00:21;;;;;;;18.67;4.55;;;8.80;99.90;;;;;;5074175;28;20040;-63
2022/01/27 11:02:58;;;;;;;24.35;4.70;;;8.90;99.90;;;;;;5092524;28;20390;-62
2022/01/27 11:05:34;;;;;;;23.75;5.03;;;8.90;99.90;;;;;;5092415;28;20036;-63
2022/01/27 11:08:00;;;;;;;17.95;4.18;;;8.90;99.90;;;;;;5092343;28;20039;-62
2022/01/27 11:10:26;;;;;;;16.58;4.43;;;8.90;99.90;;;;;;5092276;28;20491;-63
2022/01/27 11:12:53;;;;;;;29.30;5.45;;;9.00;99.90;;;;;;5092351;28;20035;-62
2022/01/27 11:15:20;;;;;;;25.55;5.40;;;9.00;99.90;;;;;;5092339;28;20040;-61
2022/01/27 11:17:47;;;;;;;26.92;5.03;;;9.00;99.90;;;;;;5092336;28;20051;-61
2022/01/27 11:20:25;;;;;;;25.08;4.90;;;9.00;99.90;;;;;;5092163;28;20394;-63
2022/01/27 11:28:00;;;;;;;18.35;4.45;;;9.00;99.90;;;;;;5092112;28;20144;-62
2022/01/27 11:30:44;;;;;;;27.48;5.97;;;9.00;99.90;;;;;;5091976;28;20032;-63
2022/01/27 11:33:13;;;;;;;25.33;4.68;;;9.00;99.90;;;;;;5091743;28;20497;-62
2022/01/27 11:35:40;;;;;;;25.75;4.78;;;9.10;99.90;;;;;;5092142;28;20040;-62
2022/01/27 11:38:08;;;;;;;23.73;4.90;;;9.10;99.90;;;;;;5091620;28;20481;-63
2022/01/27 11:40:45;;;;;;;23.15;4.60;;;9.10;99.90;;;;;;5091946;28;20410;-62
2022/01/27 11:43:15;;;;;;;21.35;5.40;;;9.10;99.90;;;;;;5091943;28;20085;-62
2022/01/27 11:45:45;;;;;;;19.80;3.88;;;9.10;99.90;;;;;;5092116;28;20054;-63
2022/01/27 11:48:14;;;;;;;24.42;5.45;;;9.10;99.90;;;;;;5092182;28;20032;-63
2022/01/27 11:50:53;;;;;;;20.88;4.32;;;9.10;99.90;;;;;;5073502;28;20055;-63
2022/01/27 11:53:42;;;;;;;22.77;3.72;;;9.10;99.90;;;;;;5073890;28;20082;-63
2022/01/27 11:56:08;;;;;;;22.38;4.78;;;9.10;99.90;;;;;;5091443;28;20548;-61
2022/01/27 11:58:46;;;;;;;30.67;4.45;;;9.20;99.90;;;;;;5091832;28;20039;-62
2022/01/27 12:01:28;;;;;;;23.88;5.53;;;9.10;99.90;;;;;;5091610;28;20044;-61
2022/01/27 12:04:06;;;;;;;24.65;4.53;;;9.10;99.90;;;;;;5091502;28;20035;-62
2022/01/27 12:06:39;;;;;;;21.60;3.33;;;9.10;99.90;;;;;;5091558;28;20036;-62
2022/01/27 12:09:19;;;;;;;23.30;4.53;;;9.10;99.90;;;;;;5091403;28;20079;-63
2022/01/27 12:11:58;;;;;;;19.13;4.15;;;9.10;99.90;;;;;;5091396;28;20046;-62
2022/01/27 12:14:32;;;;;;;27.30;4.55;;;9.10;99.90;;;;;;5091285;28;20044;-59
2022/01/27 12:17:07;;;;;;;24.98;3.97;;;9.10;99.90;;;;;;5091612;28;20048;-61
2022/01/27 12:19:51;;;;;;;20.48;4.32;;;9.10;99.90;;;;;;5091391;28;20056;-62
2022/01/27 12:22:17;;;;;;;24.38;5.95;;;9.10;99.90;;;;;;5091300;28;20042;-62
2022/01/27 12:25:00;;;;;;;25.98;5.40;;;9.20;99.90;;;;;;5091222;28;20063;-62
2022/01/27 12:27:28;;;;;;;33.05;4.65;;;9.10;99.90;;;;;;5073213;28;20066;-63
2022/01/27 12:29:56;;;;;;;19.70;4.18;;;9.20;99.90;;;;;;5072967;28;20542;-61
2022/01/27 12:32:25;;;;;;;22.17;4.60;;;9.20;99.90;;;;;;5091355;28;20036;-62
2022/01/27 12:34:53;;;;;;;21.40;4.07;;;9.10;99.90;;;;;;5091283;28;20036;-61
2022/01/27 12:37:24;;;;;;;20.80;4.07;;;9.20;99.90;;;;;;5091032;28;20055;-62
2022/01/27 12:39:51;;;;;;;29.05;4.07;;;9.20;99.90;;;;;;5091925;28;20151;-62
2022/01/27 12:42:18;;;;;;;25.98;4.22;;;9.20;99.90;;;;;;5091378;28;20561;-61
2022/01/27 12:45:00;;;;;;;23.08;4.05;;;9.10;99.90;;;;;;5094102;28;20054;-63
2022/01/27 12:47:28;;;;;;;18.95;3.38;;;9.20;99.90;;;;;;5095150;28;20391;-61
2022/01/27 12:50:04;;;;;;;24.88;3.80;;;9.20;99.90;;;;;;5076753;28;20100;-60
2022/01/27 12:52:34;;;;;;;27.33;5.18;;;9.20;99.90;;;;;;5095140;28;20055;-62
2022/01/27 12:55:00;;;;;;;27.08;4.03;;;9.30;99.90;;;;;;5094873;28;20044;-62
2022/01/27 12:57:30;;;;;;;23.70;3.80;;;9.40;99.90;;;;;;5094848;28;20044;-63
2022/01/27 12:59:57;;;;;;;18.60;3.88;;;9.40;99.90;;;;;;5094774;28;20359;-61
2022/01/27 13:02:25;;;;;;;21.23;4.63;;;9.30;99.90;;;;;;5076467;28;20048;-61
2022/01/27 13:04:56;;;;;;;23.13;4.78;;;9.30;99.90;;;;;;5094914;28;20065;-62
2022/01/27 13:07:23;;;;;;;22.15;4.13;;;9.30;99.90;;;;;;5076579;28;20052;-61
2022/01/27 13:10:00;;;;;;;23.05;3.05;;;9.30;99.90;;;;;;5094837;28;20449;-61
2022/01/27 13:12:35;;;;;;;28.48;4.50;;;9.40;99.90;;;;;;5094650;28;20036;-60
2022/01/27 13:15:07;;;;;;;22.52;4.03;;;9.30;99.90;;;;;;5094468;28;20044;-61
2022/01/27 13:20:30;;;;;;;24.35;3.53;;;9.30;99.90;;;;;;5032048;28;20044;-60
2022/01/27 13:23:05;;;;;;;23.40;3.83;;;9.40;99.90;;;;;;5015313;28;20059;-63
2022/01/27 13:25:52;;;;;;;24.73;4.78;;;9.30;99.90;;;;;;5032076;28;20046;-61
2022/01/27 13:28:37;;;;;;;25.35;4.07;;;9.40;99.90;;;;;;5032086;28;20395;-62
2022/01/27 13:31:06;;;;;;;28.98;4.40;;;9.50;99.90;;;;;;5031848;28;20512;-63
2022/01/27 13:33:40;;;;;;;;;;;9.50;99.90;;;;;;5032243;28;20064;-60
2022/01/27 13:36:07;;;;;;;24.25;4.35;;;9.50;99.90;;;;;;5031542;28;20031;-61
2022/01/27 13:38:48;;;;;;;22.15;4.97;;;9.40;99.90;;;;;;5031883;28;20511;-61
2022/01/27 13:41:20;;;;;;;28.08;5.00;;;9.40;99.90;;;;;;5031721;28;20045;-62